Time;durP1;ratioP1;P1;durP2;ratioP2;P2;SDS_P1;SDS_P2;PMS_P1;PMS_P2;Temp;Humidity;BMP_temperature;BMP_pressure;BME280_temperature;BME280_humidity;BME280_pressure;Samples;Min_cycle;Max_cycle;Signal;HPM_P1;HPM_P2
2021/03/20 00:01:05;;;;;;;4.23;3.47;;;0.00;99.90;;;;;;4993618;28;20444;-68
2021/03/20 00:03:34;;;;;;;4.80;3.33;;;-0.10;99.90;;;;;;5061056;28;20444;-68
2021/03/20 00:06:02;;;;;;;5.00;3.40;;;0.00;99.90;;;;;;4993368;28;20473;-68
2021/03/20 00:08:42;;;;;;;4.03;3.40;;;-0.10;99.90;;;;;;5045004;28;20536;-68
2021/03/20 00:11:11;;;;;;;5.07;2.97;;;-0.10;99.90;;;;;;4994063;28;20524;-68
2021/03/20 00:13:39;;;;;;;2.80;2.50;;;-0.20;99.90;;;;;;5060598;28;20871;-69
2021/03/20 00:16:10;;;;;;;3.20;2.50;;;-0.30;99.90;;;;;;4993687;28;20437;-69
2021/03/20 00:18:39;;;;;;;4.43;2.80;;;-0.30;99.90;;;;;;4994619;28;20445;-69
2021/03/20 00:21:14;;;;;;;4.90;2.90;;;-0.30;99.90;;;;;;5043993;28;20486;-70
2021/03/20 00:23:42;;;;;;;4.67;3.53;;;-0.40;99.90;;;;;;4993416;28;20452;-73
2021/03/20 00:26:09;;;;;;;5.23;3.37;;;-0.30;99.90;;;;;;4994051;28;20822;-69
2021/03/20 00:28:37;;;;;;;3.13;2.53;;;-0.30;99.90;;;;;;4992804;28;20442;-70
2021/03/20 00:31:09;;;;;;;3.20;2.60;;;-0.20;99.90;;;;;;4956365;28;20446;-69
2021/03/20 00:33:38;;;;;;;2.43;2.23;;;-0.30;99.90;;;;;;4974636;28;20417;-69
2021/03/20 00:36:07;;;;;;;2.70;2.50;;;-0.30;99.90;;;;;;4956685;28;20441;-69
2021/03/20 00:38:35;;;;;;;2.50;2.23;;;-0.40;99.90;;;;;;4956915;28;20965;-68
2021/03/20 00:41:04;;;;;;;3.03;2.47;;;-0.40;99.90;;;;;;4974215;28;20481;-68
2021/03/20 00:43:32;;;;;;;2.50;2.00;;;-0.50;99.90;;;;;;4956904;28;20452;-69
2021/03/20 00:48:52;;;;;;;3.90;2.40;;;-0.60;99.90;;;;;;4974041;28;20445;-68
2021/03/20 00:51:20;;;;;;;3.03;2.67;;;-0.70;99.90;;;;;;4957082;28;20446;-71
2021/03/20 00:56:40;;;;;;;2.33;2.00;;;-0.90;99.90;;;;;;4957146;28;20515;-70
2021/03/20 00:59:07;;;;;;;4.10;2.07;;;-0.90;99.90;;;;;;4941046;28;20446;-69
2021/03/20 01:01:35;;;;;;;3.97;2.43;;;-1.00;99.90;;;;;;4956695;28;20450;-72
2021/03/20 01:04:03;;;;;;;3.57;2.50;;;-1.10;99.90;;;;;;4974094;28;20446;-71
2021/03/20 01:06:31;;;;;;;3.70;2.23;;;-1.10;99.90;;;;;;4956109;28;20473;-69
2021/03/20 01:09:01;;;;;;;2.80;2.37;;;-1.20;99.90;;;;;;4957301;28;20426;-70
2021/03/20 01:11:31;;;;;;;2.20;1.80;;;-1.30;99.90;;;;;;4957135;28;20992;-69
2021/03/20 01:14:00;;;;;;;3.40;2.40;;;-1.40;99.90;;;;;;4973720;28;20446;-69
2021/03/20 01:16:29;;;;;;;4.03;2.47;;;-1.50;99.90;;;;;;4974210;28;20438;-68
2021/03/20 01:18:57;;;;;;;5.03;2.73;;;-1.50;99.90;;;;;;4973227;28;20776;-69
2021/03/20 01:21:26;;;;;;;3.87;2.50;;;-1.60;99.90;;;;;;4974422;28;20442;-73
2021/03/20 01:23:54;;;;;;;3.40;2.87;;;-1.60;99.90;;;;;;4974683;28;20506;-68
2021/03/20 01:26:22;;;;;;;4.73;3.43;;;-1.40;99.90;;;;;;4974261;28;20473;-69
2021/03/20 01:28:50;;;;;;;3.70;2.70;;;-1.30;99.90;;;;;;4975683;28;20773;-68
2021/03/20 01:31:19;;;;;;;2.60;2.40;;;-1.40;99.90;;;;;;5044725;28;20438;-69
2021/03/20 01:33:46;;;;;;;3.87;3.03;;;-1.40;99.90;;;;;;4996510;28;20499;-70
2021/03/20 01:36:14;;;;;;;5.97;3.10;;;-1.40;99.90;;;;;;5068400;28;20436;-69
2021/03/20 01:38:42;;;;;;;2.90;2.50;;;-1.30;99.90;;;;;;5064344;28;21051;-69
2021/03/20 01:41:16;;;;;;;4.20;2.80;;;-1.30;99.90;;;;;;5065199;28;20444;-72
2021/03/20 01:43:44;;;;;;;6.10;2.70;;;-1.40;99.90;;;;;;5052627;28;20430;-71
2021/03/20 01:46:41;;;;;;;3.43;2.90;;;-1.30;99.90;;;;;;5071371;28;20492;-71
2021/03/20 01:49:22;;;;;;;6.33;4.00;;;-1.30;99.90;;;;;;5074625;28;20434;-72
2021/03/20 01:51:57;;;;;;;3.80;3.20;;;-1.30;99.90;;;;;;5078317;28;20460;-69
2021/03/20 01:54:35;;;;;;;4.20;2.60;;;-1.30;99.90;;;;;;5008871;28;20411;-70
2021/03/20 01:57:05;;;;;;;4.40;2.93;;;-1.40;99.90;;;;;;5007753;28;20456;-70
2021/03/20 01:59:33;;;;;;;8.30;2.60;;;-1.40;99.90;;;;;;5007057;28;20449;-69
2021/03/20 02:02:00;;;;;;;5.07;2.80;;;-1.50;99.90;;;;;;5007949;28;20437;-68
2021/03/20 02:04:29;;;;;;;2.83;2.63;;;-1.50;99.90;;;;;;5077885;28;20437;-69
2021/03/20 02:06:57;;;;;;;2.83;2.10;;;-1.60;99.90;;;;;;5009966;28;20468;-69
2021/03/20 02:09:34;;;;;;;2.73;2.30;;;-1.60;99.90;;;;;;5012331;28;20422;-70
2021/03/20 02:12:16;;;;;;;3.53;3.03;;;-1.60;99.90;;;;;;5012442;28;20436;-71
2021/03/20 02:14:51;;;;;;;6.67;3.43;;;-1.70;99.90;;;;;;5080285;28;20433;-69
2021/03/20 02:17:31;;;;;;;4.07;2.73;;;-1.80;99.90;;;;;;5012544;28;20436;-71
2021/03/20 02:20:28;;;;;;;3.37;3.07;;;-1.80;99.90;;;;;;5012146;28;20448;-69
2021/03/20 02:23:27;;;;;;;3.50;3.07;;;-1.80;99.90;;;;;;5005759;28;20492;-71
2021/03/20 02:26:51;;;;;;;3.27;2.63;;;-1.80;99.90;;;;;;5005731;28;20503;-70
2021/03/20 02:29:46;;;;;;;4.57;3.30;;;-1.70;99.90;;;;;;5078716;28;20489;-69
2021/03/20 02:32:35;;;;;;;5.40;3.43;;;-1.70;99.90;;;;;;5079896;28;20425;-69
2021/03/20 02:35:11;;;;;;;6.47;3.00;;;-1.80;99.90;;;;;;5012386;28;20489;-68
2021/03/20 02:37:48;;;;;;;4.67;3.47;;;-1.80;99.90;;;;;;5063242;28;20444;-69
2021/03/20 02:40:40;;;;;;;4.90;3.00;;;-1.80;99.90;;;;;;5078669;28;20703;-69
2021/03/20 02:43:17;;;;;;;6.43;4.43;;;-1.90;99.90;;;;;;5079434;28;20445;-70
2021/03/20 02:45:50;;;;;;;3.43;2.97;;;-1.90;99.90;;;;;;5079832;28;20470;-69
2021/03/20 02:48:25;;;;;;;4.33;3.53;;;-1.90;99.90;;;;;;5080479;28;20453;-69
2021/03/20 02:51:01;;;;;;;5.03;4.07;;;-1.90;99.90;;;;;;5010200;28;20504;-69
2021/03/20 02:53:37;;;;;;;5.23;3.60;;;-2.00;99.90;;;;;;5079383;28;20513;-69
2021/03/20 02:56:09;;;;;;;4.00;3.50;;;-1.90;99.90;;;;;;5011385;28;20517;-70
2021/03/20 02:58:43;;;;;;;4.80;3.30;;;-2.00;99.90;;;;;;5078829;28;20421;-69
2021/03/20 03:01:14;;;;;;;4.13;3.37;;;-2.00;99.90;;;;;;5010679;28;20433;-71
2021/03/20 03:03:46;;;;;;;4.40;3.83;;;-2.10;99.90;;;;;;5010503;28;20441;-71
2021/03/20 03:06:23;;;;;;;3.77;3.47;;;-2.10;99.90;;;;;;5011314;28;20469;-69
2021/03/20 03:08:55;;;;;;;5.67;4.27;;;-2.10;99.90;;;;;;5010815;28;20425;-69
2021/03/20 03:11:28;;;;;;;4.10;3.50;;;-2.10;99.90;;;;;;5061926;28;20437;-69
2021/03/20 03:14:01;;;;;;;3.97;3.10;;;-2.10;99.90;;;;;;5078584;28;20437;-70
2021/03/20 03:16:33;;;;;;;3.63;3.33;;;-2.20;99.90;;;;;;5007474;28;20452;-69
2021/03/20 03:19:07;;;;;;;3.73;3.27;;;-2.20;99.90;;;;;;4993092;28;20445;-69
2021/03/20 03:21:44;;;;;;;3.60;2.77;;;-2.20;99.90;;;;;;5059186;28;20848;-69
2021/03/20 03:24:16;;;;;;;3.13;2.83;;;-2.30;99.90;;;;;;5058302;28;20432;-70
2021/03/20 03:26:48;;;;;;;2.70;2.30;;;-2.30;99.90;;;;;;4990875;28;20476;-70
2021/03/20 03:29:21;;;;;;;3.93;2.90;;;-2.30;99.90;;;;;;4990893;28;20886;-69
2021/03/20 03:31:57;;;;;;;4.13;3.20;;;-2.40;99.90;;;;;;4991419;28;20433;-70
2021/03/20 03:34:33;;;;;;;5.17;3.20;;;-2.40;99.90;;;;;;5058375;28;20444;-70
2021/03/20 03:37:07;;;;;;;2.70;2.50;;;-2.50;99.90;;;;;;5058784;28;20425;-70
2021/03/20 03:39:43;;;;;;;3.73;3.33;;;-2.50;99.90;;;;;;4991314;28;20454;-71
2021/03/20 03:42:13;;;;;;;4.60;2.47;;;-2.60;99.90;;;;;;5059935;28;20433;-68
2021/03/20 03:44:43;;;;;;;4.83;3.10;;;-2.60;99.90;;;;;;4994500;28;20651;-69
2021/03/20 03:47:13;;;;;;;3.30;2.73;;;-2.50;99.90;;;;;;5061757;28;21004;-69
2021/03/20 03:49:42;;;;;;;3.20;2.80;;;-2.50;99.90;;;;;;4994272;28;20498;-69
2021/03/20 03:52:11;;;;;;;4.33;2.63;;;-2.60;99.90;;;;;;4994526;28;20434;-71
2021/03/20 03:54:39;;;;;;;7.20;3.20;;;-2.60;99.90;;;;;;5062741;28;20751;-69
2021/03/20 03:57:27;;;;;;;6.80;3.20;;;-2.60;99.90;;;;;;5061063;28;20445;-69
2021/03/20 04:00:09;;;;;;;5.20;3.43;;;-2.60;99.90;;;;;;5044816;28;20471;-68
2021/03/20 04:02:58;;;;;;;4.30;3.30;;;-2.50;99.90;;;;;;4994813;28;20753;-71
2021/03/20 04:05:35;;;;;;;7.00;2.80;;;-2.60;99.90;;;;;;4994348;28;20574;-69
2021/03/20 04:08:11;;;;;;;6.00;3.40;;;-2.60;99.90;;;;;;4994376;28;20473;-71
2021/03/20 04:10:46;;;;;;;3.73;2.50;;;-2.60;99.90;;;;;;4993814;28;20464;-69
2021/03/20 04:13:24;;;;;;;4.43;3.37;;;-2.60;99.90;;;;;;5061837;28;20424;-68
2021/03/20 04:16:01;;;;;;;3.70;2.27;;;-2.60;99.90;;;;;;5060526;28;20456;-68
2021/03/20 04:18:34;;;;;;;4.53;2.60;;;-2.70;99.90;;;;;;5060171;28;20920;-69
2021/03/20 04:21:18;;;;;;;2.40;2.20;;;-2.80;99.90;;;;;;5060997;28;20464;-71
2021/03/20 04:24:01;;;;;;;6.53;2.60;;;-2.80;99.90;;;;;;5060624;28;20925;-69
2021/03/20 04:26:37;;;;;;;3.43;2.83;;;-2.90;99.90;;;;;;4993955;28;21007;-69
2021/03/20 04:29:13;;;;;;;3.83;2.90;;;-2.80;99.90;;;;;;4994206;28;20971;-69
2021/03/20 04:31:47;;;;;;;3.60;3.27;;;-2.80;99.90;;;;;;5061626;28;20818;-71
2021/03/20 04:34:20;;;;;;;4.60;3.10;;;-2.90;99.90;;;;;;5045289;28;20434;-69
2021/03/20 04:36:52;;;;;;;3.67;2.63;;;-2.90;99.90;;;;;;5060760;28;20448;-69
2021/03/20 04:39:24;;;;;;;3.47;2.60;;;-2.90;99.90;;;;;;5061407;28;20437;-69
2021/03/20 04:42:13;;;;;;;6.75;3.03;;;-2.80;99.90;;;;;;5060935;28;20429;-70
2021/03/20 04:44:41;;;;;;;6.30;2.93;;;-3.00;99.90;;;;;;4994663;28;20243;-71
2021/03/20 04:47:14;;;;;;;6.10;2.93;;;-3.10;99.90;;;;;;5062681;28;20465;-70
2021/03/20 04:49:49;;;;;;;3.90;2.40;;;-3.10;99.90;;;;;;5062412;28;20441;-69
2021/03/20 04:52:29;;;;;;;3.90;2.80;;;-3.10;99.90;;;;;;4993848;28;20433;-69
2021/03/20 04:54:58;;;;;;;3.50;2.90;;;-3.00;99.90;;;;;;4993622;28;20478;-69
2021/03/20 04:57:31;;;;;;;5.70;2.33;;;-3.00;99.90;;;;;;4994377;28;20453;-72
2021/03/20 05:00:07;;;;;;;5.10;2.88;;;-2.90;99.90;;;;;;4994985;28;20500;-69
2021/03/20 05:02:41;;;;;;;5.87;2.60;;;-2.90;99.90;;;;;;4994863;28;20229;-71
2021/03/20 05:05:22;;;;;;;3.67;2.73;;;-2.90;99.90;;;;;;5046321;28;20532;-69
2021/03/20 05:07:52;;;;;;;3.15;2.67;;;-2.90;99.90;;;;;;5057644;28;20532;-69
2021/03/20 05:10:29;;;;;;;3.87;2.97;;;-3.00;99.90;;;;;;5009112;28;20202;-69
2021/03/20 05:13:00;;;;;;;3.13;2.50;;;-3.00;99.90;;;;;;5079318;28;20432;-70
2021/03/20 05:15:30;;;;;;;6.97;3.28;;;-2.90;99.90;;;;;;5077463;28;20201;-72
2021/03/20 05:17:58;;;;;;;4.70;2.70;;;-3.00;99.90;;;;;;5010394;28;20208;-69
2021/03/20 05:20:26;;;;;;;6.65;2.50;;;-3.00;99.90;;;;;;5009811;28;20465;-72
2021/03/20 05:22:55;;;;;;;4.53;2.78;;;-3.00;99.90;;;;;;5002989;28;20186;-69
2021/03/20 05:25:27;;;;;;;3.37;2.77;;;-3.00;99.90;;;;;;5059665;28;20207;-70
2021/03/20 05:27:55;;;;;;;5.47;3.50;;;-3.10;99.90;;;;;;4992276;28;20518;-71
2021/03/20 05:30:25;;;;;;;7.30;2.72;;;-3.00;99.90;;;;;;4992135;28;20489;-71
2021/03/20 05:32:53;;;;;;;3.00;2.70;;;-3.00;99.90;;;;;;5059499;28;20182;-72
2021/03/20 05:35:24;;;;;;;2.55;2.20;;;-3.00;99.90;;;;;;4992852;28;20437;-69
2021/03/20 05:37:54;;;;;;;2.45;2.10;;;-2.90;99.90;;;;;;5059934;28;20212;-68
2021/03/20 05:40:27;;;;;;;2.63;2.23;;;-2.80;99.90;;;;;;5059149;28;20220;-70
2021/03/20 05:43:20;;;;;;;3.63;2.50;;;-2.60;99.90;;;;;;5059932;28;20780;-68
2021/03/20 05:45:59;;;;;;;7.97;2.60;;;-2.20;99.90;;;;;;5060066;28;20607;-69
2021/03/20 05:48:31;;;;;;;6.20;3.13;;;-1.70;99.90;;;;;;4992052;28;20433;-68
2021/03/20 05:51:25;;;;;;;3.20;2.30;;;-1.30;99.90;;;;;;5059378;28;20447;-70
2021/03/20 05:54:19;;;;;;;3.33;3.03;;;-1.40;99.90;;;;;;4992382;28;20433;-69
2021/03/20 05:56:56;;;;;;;2.50;2.30;;;-1.50;99.90;;;;;;5059445;28;20454;-68
2021/03/20 05:59:32;;;;;;;4.57;2.50;;;-1.00;99.90;;;;;;5060247;28;20437;-69
2021/03/20 06:02:11;;;;;;;5.90;3.00;;;-0.30;99.90;;;;;;4992884;28;20476;-70
2021/03/20 06:04:42;;;;;;;3.33;2.50;;;0.30;97.70;;;;;;4991515;28;20540;-69
2021/03/20 06:07:46;;;;;;;2.40;2.20;;;0.90;97.00;;;;;;4992083;28;20480;-69
2021/03/20 06:10:28;;;;;;;3.57;2.57;;;2.00;95.10;;;;;;5059240;28;20496;-69
2021/03/20 06:13:11;;;;;;;4.80;2.37;;;2.80;92.30;;;;;;5059219;28;20434;-72
2021/03/20 06:15:57;;;;;;;2.20;1.63;;;3.10;90.20;;;;;;5059808;28;20444;-68
2021/03/20 06:19:15;;;;;;;4.50;2.57;;;2.10;90.70;;;;;;5059865;28;20567;-71
2021/03/20 06:22:15;;;;;;;4.20;2.60;;;2.60;90.20;;;;;;5059697;28;20432;-70
2021/03/20 06:25:00;;;;;;;5.67;2.27;;;3.10;88.30;;;;;;4992851;28;20441;-69
2021/03/20 06:27:35;;;;;;;2.80;2.07;;;4.00;85.90;;;;;;5059473;28;20480;-69
2021/03/20 06:30:14;;;;;;;3.53;2.40;;;3.70;83.50;;;;;;4992963;28;20999;-71
2021/03/20 06:32:45;;;;;;;3.47;2.83;;;4.20;82.90;;;;;;4993367;28;20424;-69
2021/03/20 06:35:35;;;;;;;3.03;1.80;;;4.90;80.80;;;;;;5060513;28;20491;-69
2021/03/20 06:38:05;;;;;;;3.13;2.13;;;5.70;78.00;;;;;;4993462;28;20433;-68
2021/03/20 06:40:47;;;;;;;4.47;2.47;;;4.60;75.00;;;;;;5062811;28;20449;-69
2021/03/20 06:43:19;;;;;;;3.73;2.70;;;4.30;77.10;;;;;;4994985;28;20793;-69
2021/03/20 06:45:48;;;;;;;3.83;2.87;;;3.80;77.30;;;;;;5054960;28;20408;-69
2021/03/20 06:48:18;;;;;;;4.13;2.30;;;3.80;78.60;;;;;;5037361;28;21006;-70
2021/03/20 06:50:48;;;;;;;3.50;2.43;;;4.20;78.10;;;;;;5045280;28;20437;-69
2021/03/20 06:53:24;;;;;;;3.80;2.70;;;4.50;77.30;;;;;;4991937;28;20464;-68
2021/03/20 06:55:58;;;;;;;2.67;2.43;;;5.50;74.60;;;;;;4992454;28;20421;-68
2021/03/20 06:58:33;;;;;;;2.70;2.40;;;5.80;72.40;;;;;;5059540;28;20439;-68
2021/03/20 07:01:09;;;;;;;3.73;2.57;;;4.50;72.20;;;;;;5042560;28;20445;-67
2021/03/20 07:04:12;;;;;;;5.90;3.10;;;5.20;75.70;;;;;;4991834;28;20409;-69
2021/03/20 07:06:50;;;;;;;2.30;2.10;;;6.00;73.80;;;;;;4992086;28;20536;-68
2021/03/20 07:12:14;;;;;;;3.10;2.80;;;4.90;70.50;;;;;;4992645;28;20824;-68
2021/03/20 07:14:45;;;;;;;3.80;2.50;;;5.80;71.30;;;;;;4992435;28;20423;-69
2021/03/20 07:17:28;;;;;;;3.27;2.20;;;5.30;68.30;;;;;;5059985;28;20444;-67
2021/03/20 07:19:59;;;;;;;2.50;2.30;;;5.30;69.10;;;;;;5062995;28;20918;-68
2021/03/20 07:22:34;;;;;;;5.33;2.73;;;5.00;68.90;;;;;;4995355;28;20439;-68
2021/03/20 07:25:28;;;;;;;3.53;2.10;;;6.60;69.60;;;;;;4995632;28;20444;-69
2021/03/20 07:28:07;;;;;;;3.87;2.27;;;6.30;65.60;;;;;;4994953;28;20439;-68
2021/03/20 07:30:39;;;;;;;4.20;2.47;;;5.60;65.20;;;;;;5061482;28;20895;-69
2021/03/20 07:33:28;;;;;;;2.50;2.30;;;5.90;67.50;;;;;;5062907;28;20488;-70
2021/03/20 07:36:13;;;;;;;3.33;2.20;;;6.90;67.10;;;;;;4994553;28;21040;-69
2021/03/20 07:38:42;;;;;;;3.10;1.83;;;7.30;62.00;;;;;;4995579;28;20444;-69
2021/03/20 07:41:12;;;;;;;2.70;2.50;;;7.70;59.20;;;;;;5063590;28;20469;-68
2021/03/20 07:43:40;;;;;;;3.70;2.53;;;8.60;58.70;;;;;;4996122;28;20428;-69
2021/03/20 07:46:13;;;;;;;6.03;2.40;;;7.80;58.40;;;;;;4996174;28;20836;-72
2021/03/20 07:48:43;;;;;;;2.10;1.87;;;8.10;57.10;;;;;;5063034;28;20472;-69
2021/03/20 07:51:14;;;;;;;5.30;3.40;;;9.60;55.50;;;;;;5045324;28;20446;-70
2021/03/20 07:53:47;;;;;;;4.70;2.60;;;8.10;54.00;;;;;;5062713;28;20430;-71
2021/03/20 07:56:33;;;;;;;4.17;3.17;;;7.80;56.00;;;;;;5062634;28;20473;-71
2021/03/20 07:59:13;;;;;;;2.40;2.20;;;7.20;57.10;;;;;;4994550;28;20437;-70
2021/03/20 08:01:42;;;;;;;2.37;2.17;;;7.50;56.10;;;;;;4994470;28;20430;-69
2021/03/20 08:04:12;;;;;;;4.20;2.37;;;8.30;55.20;;;;;;5044983;28;20427;-70
2021/03/20 08:06:48;;;;;;;3.83;2.20;;;7.90;53.80;;;;;;4994598;28;20435;-69
2021/03/20 08:12:22;;;;;;;5.23;2.70;;;8.80;51.50;;;;;;5062493;28;20982;-70
2021/03/20 08:15:05;;;;;;;3.27;2.97;;;9.20;53.20;;;;;;5062030;28;20433;-69
2021/03/20 08:17:34;;;;;;;3.73;2.20;;;8.70;51.30;;;;;;5061578;28;20549;-69
2021/03/20 08:20:02;;;;;;;2.87;2.50;;;7.00;52.50;;;;;;4995055;28;20438;-70
2021/03/20 08:22:47;;;;;;;2.90;2.10;;;6.90;54.60;;;;;;4995614;28;20468;-69
2021/03/20 08:25:37;;;;;;;11.40;3.23;;;4.90;58.10;;;;;;4995381;28;20444;-70
2021/03/20 08:28:24;;;;;;;6.10;5.20;;;3.10;62.00;;;;;;4994683;28;20524;-70
2021/03/20 08:31:04;;;;;;;8.50;4.97;;;3.60;66.10;;;;;;4994539;28;20526;-69
2021/03/20 08:34:02;;;;;;;4.37;2.43;;;3.30;68.60;;;;;;5061747;28;20439;-68
2021/03/20 08:36:40;;;;;;;3.07;2.30;;;4.90;64.30;;;;;;4993522;28;20450;-68
2021/03/20 08:39:21;;;;;;;2.50;2.07;;;4.80;62.90;;;;;;5060259;28;20437;-69
2021/03/20 08:41:58;;;;;;;3.20;2.47;;;4.50;64.40;;;;;;5061264;28;20430;-69
2021/03/20 08:45:02;;;;;;;2.20;2.03;;;4.70;62.30;;;;;;4993671;28;20895;-69
2021/03/20 08:51:54;;;;;;;4.80;3.93;;;7.40;57.70;;;;;;4953567;29;20421;-71
2021/03/20 08:54:46;;;;;;;4.60;2.60;;;8.40;54.50;;;;;;4936956;29;20408;-69
2021/03/20 08:57:26;;;;;;;3.20;2.90;;;8.90;51.70;;;;;;4953424;29;20466;-68
2021/03/20 08:59:55;;;;;;;3.50;2.70;;;7.90;51.00;;;;;;4937333;29;20443;-69
2021/03/20 09:02:34;;;;;;;4.70;3.13;;;6.30;53.80;;;;;;4933850;28;20828;-70
2021/03/20 09:05:16;;;;;;;7.63;2.50;;;6.00;57.30;;;;;;4933370;29;20959;-70
2021/03/20 09:07:51;;;;;;;2.50;2.30;;;7.60;55.30;;;;;;4933976;29;20499;-70
2021/03/20 09:10:26;;;;;;;2.33;2.17;;;6.70;53.70;;;;;;4917946;28;20528;-69
2021/03/20 09:13:02;;;;;;;2.27;2.07;;;7.10;54.70;;;;;;4933727;28;20473;-69
2021/03/20 09:15:47;;;;;;;2.90;2.10;;;9.50;51.70;;;;;;4932714;28;20476;-70
2021/03/20 09:18:16;;;;;;;3.00;2.10;;;9.50;48.80;;;;;;4918339;29;20443;-69
2021/03/20 09:20:47;;;;;;;2.93;2.37;;;8.20;51.00;;;;;;4918101;29;20442;-72
2021/03/20 09:23:27;;;;;;;5.07;2.60;;;7.70;50.60;;;;;;4918132;29;20444;-69
2021/03/20 09:26:00;;;;;;;3.70;3.20;;;5.00;55.20;;;;;;4934010;29;20502;-69
2021/03/20 09:29:06;;;;;;;4.80;2.70;;;3.60;59.70;;;;;;4980377;28;20810;-71
2021/03/20 09:32:08;;;;;;;6.53;2.80;;;3.60;61.50;;;;;;5058687;28;20478;-70
2021/03/20 09:34:43;;;;;;;6.70;2.40;;;3.70;62.90;;;;;;4982993;28;20420;-70
2021/03/20 09:37:55;;;;;;;6.17;2.80;;;5.20;61.00;;;;;;4994873;28;20447;-72
2021/03/20 09:40:47;;;;;;;5.03;2.53;;;4.10;60.30;;;;;;5059723;28;20441;-72
2021/03/20 09:43:28;;;;;;;2.63;2.43;;;3.40;62.50;;;;;;5060305;28;20405;-69
2021/03/20 09:46:45;;;;;;;5.40;3.00;;;3.30;62.90;;;;;;5060327;28;20457;-69
2021/03/20 09:49:47;;;;;;;3.50;2.43;;;3.20;65.40;;;;;;4994412;28;20423;-70
2021/03/20 09:52:30;;;;;;;2.80;2.50;;;6.80;59.40;;;;;;5060850;28;20869;-69
2021/03/20 09:55:38;;;;;;;4.73;2.70;;;6.80;52.00;;;;;;5062701;28;20449;-68
2021/03/20 09:58:07;;;;;;;7.80;4.03;;;7.40;52.30;;;;;;4994225;28;20535;-70
2021/03/20 10:01:09;;;;;;;3.83;2.80;;;6.80;54.10;;;;;;4993348;28;22424;-70
2021/03/20 10:03:50;;;;;;;5.83;3.23;;;5.30;54.50;;;;;;4987162;28;20411;-70
2021/03/20 10:06:31;;;;;;;3.00;2.70;;;6.10;58.00;;;;;;5061336;28;20452;-71
2021/03/20 10:09:20;;;;;;;2.77;2.37;;;8.20;52.80;;;;;;4993815;28;20464;-70
2021/03/20 10:12:17;;;;;;;3.63;3.30;;;8.40;49.00;;;;;;5059751;28;20433;-69
2021/03/20 10:15:21;;;;;;;2.57;2.37;;;6.10;51.00;;;;;;4993626;28;20791;-70
2021/03/20 10:18:34;;;;;;;6.03;3.60;;;4.30;56.50;;;;;;5044277;28;20455;-70
2021/03/20 10:21:17;;;;;;;2.97;2.50;;;4.50;57.00;;;;;;5043198;28;20509;-70
2021/03/20 10:23:49;;;;;;;3.37;2.60;;;4.60;57.10;;;;;;4994146;28;20439;-69
2021/03/20 10:26:32;;;;;;;2.90;2.60;;;6.80;56.10;;;;;;4994338;28;20440;-69
2021/03/20 10:29:02;;;;;;;2.83;2.50;;;8.10;50.10;;;;;;4994658;28;20548;-71
2021/03/20 10:31:40;;;;;;;2.77;2.40;;;7.80;49.60;;;;;;5006922;28;20502;-69
2021/03/20 10:34:12;;;;;;;2.83;2.43;;;8.80;48.90;;;;;;5014874;28;20436;-69
2021/03/20 10:36:42;;;;;;;3.80;2.70;;;8.90;46.50;;;;;;5013860;28;20441;-69
2021/03/20 10:39:38;;;;;;;2.93;2.30;;;8.20;47.60;;;;;;5014061;28;20946;-69
2021/03/20 10:42:15;;;;;;;3.63;2.90;;;7.40;48.80;;;;;;4991676;28;20535;-70
2021/03/20 10:44:49;;;;;;;2.80;2.60;;;5.90;50.30;;;;;;5064395;28;20436;-69
2021/03/20 10:47:25;;;;;;;3.53;3.00;;;5.30;53.10;;;;;;5061958;28;20880;-70
2021/03/20 10:49:57;;;;;;;4.07;2.47;;;4.20;55.60;;;;;;5061723;28;20443;-69
2021/03/20 10:52:30;;;;;;;4.83;3.50;;;3.80;57.50;;;;;;4997429;28;20918;-69
2021/03/20 10:55:04;;;;;;;3.80;2.60;;;3.70;58.20;;;;;;4997676;28;20510;-70
2021/03/20 10:57:32;;;;;;;3.03;2.70;;;4.70;57.50;;;;;;4998019;28;20429;-69
2021/03/20 11:00:00;;;;;;;4.70;3.20;;;6.00;54.60;;;;;;4998448;28;20412;-73
2021/03/20 11:02:34;;;;;;;2.80;2.50;;;8.00;52.00;;;;;;4997956;28;20451;-70
2021/03/20 11:05:25;;;;;;;2.87;2.40;;;8.60;48.80;;;;;;5066668;28;20937;-70
2021/03/20 11:07:56;;;;;;;4.03;3.13;;;8.20;48.10;;;;;;5065292;28;20500;-69
2021/03/20 11:10:30;;;;;;;2.80;2.57;;;6.70;50.70;;;;;;5000639;28;20433;-70
2021/03/20 11:13:04;;;;;;;2.80;2.40;;;7.00;50.40;;;;;;5063622;28;20395;-70
2021/03/20 11:15:35;;;;;;;3.20;2.90;;;6.80;49.20;;;;;;5068194;28;20535;-74
2021/03/20 11:18:09;;;;;;;2.70;2.50;;;7.10;50.30;;;;;;5086718;28;20797;-70
2021/03/20 11:20:39;;;;;;;6.30;2.43;;;6.20;50.40;;;;;;5016867;28;20522;-70
2021/03/20 11:23:19;;;;;;;3.17;2.23;;;5.00;52.50;;;;;;5084338;28;20418;-69
2021/03/20 11:25:48;;;;;;;3.43;2.00;;;4.50;53.70;;;;;;5083811;22;20468;-80
2021/03/20 11:28:29;;;;;;;3.03;2.23;;;4.70;53.00;;;;;;5100601;28;20437;-77
2021/03/20 11:30:58;;;;;;;10.80;6.47;;;6.00;51.70;;;;;;5091993;27;20491;-80
2021/03/20 11:33:29;;;;;;;3.77;2.27;;;6.50;50.30;;;;;;5084368;28;20415;-81
2021/03/20 11:36:02;;;;;;;2.93;2.40;;;8.50;49.40;;;;;;5109737;28;20448;-81
2021/03/20 11:38:35;;;;;;;3.90;2.37;;;8.40;45.30;;;;;;5094663;28;20434;-81
2021/03/20 11:41:36;;;;;;;3.50;2.13;;;8.30;43.30;;;;;;5111330;27;20436;-82
2021/03/20 11:44:07;;;;;;;3.00;2.60;;;6.80;41.80;;;;;;5050643;28;20992;-81
2021/03/20 11:46:37;;;;;;;2.00;1.80;;;6.60;42.90;;;;;;5073705;28;20569;-82
2021/03/20 11:49:22;;;;;;;3.77;2.27;;;7.70;43.60;;;;;;5097866;28;20441;-83
2021/03/20 11:51:53;;;;;;;2.17;1.90;;;9.60;41.90;;;;;;5079283;28;20450;-81
2021/03/20 11:54:28;;;;;;;2.93;2.40;;;9.20;40.20;;;;;;5076139;28;20449;-82
2021/03/20 11:57:01;;;;;;;3.43;2.33;;;8.30;40.80;;;;;;5088987;22;20995;-80
2021/03/20 11:59:39;;;;;;;3.10;2.53;;;7.30;41.20;;;;;;5061201;28;20924;-82
2021/03/20 12:02:11;;;;;;;3.23;2.63;;;8.30;43.00;;;;;;5068016;28;20556;-79
2021/03/20 12:04:39;;;;;;;3.10;1.90;;;8.40;41.80;;;;;;5071279;28;20474;-81
2021/03/20 12:07:23;;;;;;;4.93;2.00;;;9.80;39.60;;;;;;5042012;28;20494;-80
2021/03/20 12:09:53;;;;;;;2.20;2.00;;;8.30;40.70;;;;;;5038837;28;20429;-82
2021/03/20 12:12:48;;;;;;;5.93;2.67;;;7.10;42.50;;;;;;5044341;28;20419;-81
2021/03/20 12:15:21;;;;;;;3.83;2.50;;;6.70;43.70;;;;;;5048162;28;20800;-79
2021/03/20 12:17:54;;;;;;;3.30;2.30;;;6.70;42.70;;;;;;5048115;28;20824;-79
2021/03/20 12:20:40;;;;;;;7.17;2.73;;;6.30;43.60;;;;;;5085363;23;20538;-81
2021/03/20 12:23:18;;;;;;;2.43;2.23;;;7.50;44.90;;;;;;5131794;27;20484;-81
2021/03/20 12:25:50;;;;;;;2.73;2.00;;;7.20;45.00;;;;;;5095862;28;20436;-82
2021/03/20 12:28:32;;;;;;;2.23;2.00;;;7.20;45.50;;;;;;5116209;22;20496;-80
2021/03/20 12:31:24;;;;;;;2.40;2.20;;;7.30;45.20;;;;;;5112986;28;20466;-81
2021/03/20 12:33:53;;;;;;;2.67;2.03;;;7.50;45.10;;;;;;5076042;28;20636;-79
2021/03/20 12:36:35;;;;;;;3.03;2.30;;;7.10;44.30;;;;;;5082674;28;20584;-78
2021/03/20 12:39:05;;;;;;;1.90;1.60;;;7.30;44.60;;;;;;5080432;28;20433;-80
2021/03/20 12:41:33;;;;;;;2.20;2.00;;;7.30;44.40;;;;;;5111839;28;20437;-78
2021/03/20 12:44:15;;;;;;;5.07;2.73;;;6.40;44.10;;;;;;5114970;28;20413;-78
2021/03/20 12:46:46;;;;;;;2.53;2.07;;;5.50;47.10;;;;;;5096797;28;20845;-80
2021/03/20 12:49:19;;;;;;;2.80;2.30;;;5.20;48.20;;;;;;5098801;28;20481;-80
2021/03/20 12:51:48;;;;;;;2.73;1.93;;;5.10;48.20;;;;;;5081473;28;20413;-79
2021/03/20 12:54:23;;;;;;;3.27;1.77;;;5.30;49.20;;;;;;5082502;28;20445;-81
2021/03/20 12:56:51;;;;;;;2.30;2.10;;;4.90;48.30;;;;;;5100065;28;20439;-81
2021/03/20 12:59:23;;;;;;;2.10;1.63;;;5.40;48.80;;;;;;5100005;28;20441;-79
2021/03/20 13:01:51;;;;;;;2.30;1.90;;;6.20;47.80;;;;;;5097577;28;20532;-80
2021/03/20 13:04:21;;;;;;;7.07;2.10;;;6.80;48.40;;;;;;5099829;28;20427;-79
2021/03/20 13:06:49;;;;;;;2.30;1.90;;;6.90;47.90;;;;;;5098722;28;20439;-79
2021/03/20 13:12:13;;;;;;;2.80;2.00;;;5.80;46.30;;;;;;5100507;28;20434;-79
2021/03/20 13:14:44;;;;;;;3.07;2.43;;;5.60;45.60;;;;;;5085516;28;20431;-81
2021/03/20 13:17:18;;;;;;;3.03;1.90;;;5.80;45.20;;;;;;5106545;28;20532;-79
2021/03/20 13:19:48;;;;;;;2.53;2.10;;;6.10;43.60;;;;;;5100596;28;20443;-79
2021/03/20 13:22:16;;;;;;;10.77;6.67;;;5.70;44.20;;;;;;5101322;28;20494;-79
2021/03/20 13:24:44;;;;;;;10.90;8.10;;;5.50;45.20;;;;;;5102114;28;20406;-79
2021/03/20 13:27:12;;;;;;;3.80;2.40;;;5.40;45.90;;;;;;5101425;28;20450;-78
2021/03/20 13:29:40;;;;;;;3.93;1.80;;;5.00;48.20;;;;;;5102336;28;20814;-78
2021/03/20 13:32:11;;;;;;;2.13;1.93;;;4.90;48.90;;;;;;5099303;28;20545;-78
2021/03/20 13:34:41;;;;;;;4.00;2.53;;;4.50;49.40;;;;;;5103870;28;20421;-81
2021/03/20 13:37:08;;;;;;;3.80;3.10;;;4.70;51.00;;;;;;5086457;28;20419;-78
2021/03/20 13:39:36;;;;;;;4.03;2.10;;;5.20;50.70;;;;;;5085228;28;20910;-78
2021/03/20 13:42:04;;;;;;;2.43;2.10;;;5.40;50.00;;;;;;5101313;28;20405;-78
2021/03/20 13:44:32;;;;;;;4.77;2.33;;;6.50;49.30;;;;;;5106663;28;20918;-79
2021/03/20 13:47:00;;;;;;;4.83;2.20;;;6.10;48.50;;;;;;5106313;28;20501;-80
2021/03/20 13:49:28;;;;;;;2.00;1.80;;;6.30;49.00;;;;;;5073428;28;20475;-79
2021/03/20 13:51:57;;;;;;;3.10;1.83;;;6.40;48.10;;;;;;5081621;28;20802;-79
2021/03/20 13:54:24;;;;;;;2.80;2.37;;;7.20;47.40;;;;;;5086633;28;20416;-79
2021/03/20 13:56:53;;;;;;;3.80;2.00;;;6.90;47.20;;;;;;5106937;28;20435;-80
2021/03/20 13:59:21;;;;;;;3.53;3.07;;;6.60;48.50;;;;;;5105686;28;20436;-80